sensor_id;sensor_type;location;lat;lon;timestamp;temperature;humidity
68257;DHT22;55069;51.568;4.656;2024-02-28T00:02:05;3.45;97.59
68257;DHT22;55069;51.568;4.656;2024-02-28T00:04:30;3.47;97.80
68257;DHT22;55069;51.568;4.656;2024-02-28T00:06:56;3.44;97.92
68257;DHT22;55069;51.568;4.656;2024-02-28T00:09:21;3.38;97.81
68257;DHT22;55069;51.568;4.656;2024-02-28T00:11:47;3.34;97.85
68257;DHT22;55069;51.568;4.656;2024-02-28T00:14:13;3.30;97.79
68257;DHT22;55069;51.568;4.656;2024-02-28T00:16:45;3.26;97.97
68257;DHT22;55069;51.568;4.656;2024-02-28T00:19:11;3.20;97.97
68257;DHT22;55069;51.568;4.656;2024-02-28T00:21:38;3.23;97.85
68257;DHT22;55069;51.568;4.656;2024-02-28T00:24:04;3.13;97.95
68257;DHT22;55069;51.568;4.656;2024-02-28T00:26:30;3.09;98.18
68257;DHT22;55069;51.568;4.656;2024-02-28T00:28:55;3.06;98.25
68257;DHT22;55069;51.568;4.656;2024-02-28T00:31:21;3.12;98.14
68257;DHT22;55069;51.568;4.656;2024-02-28T00:33:47;3.12;98.15
68257;DHT22;55069;51.568;4.656;2024-02-28T00:36:13;3.06;98.26
68257;DHT22;55069;51.568;4.656;2024-02-28T00:38:39;2.96;98.20
68257;DHT22;55069;51.568;4.656;2024-02-28T00:41:04;2.97;98.42
68257;DHT22;55069;51.568;4.656;2024-02-28T00:43:30;2.92;98.07
68257;DHT22;55069;51.568;4.656;2024-02-28T00:45:55;2.82;98.22
68257;DHT22;55069;51.568;4.656;2024-02-28T00:48:23;2.76;97.97
68257;DHT22;55069;51.568;4.656;2024-02-28T00:50:48;2.69;97.79
68257;DHT22;55069;51.568;4.656;2024-02-28T00:53:14;2.65;98.29
68257;DHT22;55069;51.568;4.656;2024-02-28T00:55:39;2.65;98.50
68257;DHT22;55069;51.568;4.656;2024-02-28T00:58:05;2.68;98.34
68257;DHT22;55069;51.568;4.656;2024-02-28T01:00:30;2.65;98.36
68257;DHT22;55069;51.568;4.656;2024-02-28T01:02:56;2.61;98.39
68257;DHT22;55069;51.568;4.656;2024-02-28T01:05:21;2.59;98.41
68257;DHT22;55069;51.568;4.656;2024-02-28T01:07:47;2.54;98.49
68257;DHT22;55069;51.568;4.656;2024-02-28T01:10:13;2.55;98.85
68257;DHT22;55069;51.568;4.656;2024-02-28T01:12:38;2.55;98.67
68257;DHT22;55069;51.568;4.656;2024-02-28T01:15:04;2.52;98.51
68257;DHT22;55069;51.568;4.656;2024-02-28T01:17:29;2.52;98.68
68257;DHT22;55069;51.568;4.656;2024-02-28T01:19:55;2.49;98.42
68257;DHT22;55069;51.568;4.656;2024-02-28T01:22:21;2.47;98.28
68257;DHT22;55069;51.568;4.656;2024-02-28T01:24:46;2.47;98.89
68257;DHT22;55069;51.568;4.656;2024-02-28T01:27:12;2.40;98.41
68257;DHT22;55069;51.568;4.656;2024-02-28T01:29:37;2.40;98.57
68257;DHT22;55069;51.568;4.656;2024-02-28T01:32:03;2.37;98.83
68257;DHT22;55069;51.568;4.656;2024-02-28T01:34:29;2.40;98.80
68257;DHT22;55069;51.568;4.656;2024-02-28T01:36:54;2.36;98.79
68257;DHT22;55069;51.568;4.656;2024-02-28T01:39:20;2.40;98.95
68257;DHT22;55069;51.568;4.656;2024-02-28T01:41:53;2.38;98.78
68257;DHT22;55069;51.568;4.656;2024-02-28T01:44:18;2.42;98.74
68257;DHT22;55069;51.568;4.656;2024-02-28T01:46:44;2.38;98.60
68257;DHT22;55069;51.568;4.656;2024-02-28T01:49:09;2.33;98.75
68257;DHT22;55069;51.568;4.656;2024-02-28T01:51:35;2.30;98.56
68257;DHT22;55069;51.568;4.656;2024-02-28T01:54:01;2.24;98.76
68257;DHT22;55069;51.568;4.656;2024-02-28T01:56:27;2.18;98.68
68257;DHT22;55069;51.568;4.656;2024-02-28T01:58:54;2.20;98.68
68257;DHT22;55069;51.568;4.656;2024-02-28T02:01:19;2.16;98.64
68257;DHT22;55069;51.568;4.656;2024-02-28T02:03:50;2.13;98.61
68257;DHT22;55069;51.568;4.656;2024-02-28T02:06:16;2.11;98.69
68257;DHT22;55069;51.568;4.656;2024-02-28T02:08:41;2.07;98.81
68257;DHT22;55069;51.568;4.656;2024-02-28T02:11:07;2.07;98.67
68257;DHT22;55069;51.568;4.656;2024-02-28T02:13:33;2.03;98.78
68257;DHT22;55069;51.568;4.656;2024-02-28T02:16:00;2.02;98.55
68257;DHT22;55069;51.568;4.656;2024-02-28T02:18:26;2.06;98.85
68257;DHT22;55069;51.568;4.656;2024-02-28T02:20:54;2.09;98.70
68257;DHT22;55069;51.568;4.656;2024-02-28T02:23:23;2.06;98.62
68257;DHT22;55069;51.568;4.656;2024-02-28T02:25:49;1.99;99.06
68257;DHT22;55069;51.568;4.656;2024-02-28T02:28:15;2.02;98.94
68257;DHT22;55069;51.568;4.656;2024-02-28T02:30:41;2.03;98.64
68257;DHT22;55069;51.568;4.656;2024-02-28T02:33:10;2.05;98.96
68257;DHT22;55069;51.568;4.656;2024-02-28T02:35:36;2.00;98.99
68257;DHT22;55069;51.568;4.656;2024-02-28T02:38:02;1.99;98.93
68257;DHT22;55069;51.568;4.656;2024-02-28T02:40:27;1.97;98.93
68257;DHT22;55069;51.568;4.656;2024-02-28T02:42:53;1.95;98.76
68257;DHT22;55069;51.568;4.656;2024-02-28T02:45:18;1.89;98.93
68257;DHT22;55069;51.568;4.656;2024-02-28T02:47:44;1.93;98.71
68257;DHT22;55069;51.568;4.656;2024-02-28T02:50:10;1.93;98.76
68257;DHT22;55069;51.568;4.656;2024-02-28T02:52:36;1.93;99.03
68257;DHT22;55069;51.568;4.656;2024-02-28T02:55:01;1.92;99.01
68257;DHT22;55069;51.568;4.656;2024-02-28T02:57:27;1.92;99.05
68257;DHT22;55069;51.568;4.656;2024-02-28T02:59:52;1.93;99.05
68257;DHT22;55069;51.568;4.656;2024-02-28T03:02:18;1.87;98.86
68257;DHT22;55069;51.568;4.656;2024-02-28T03:04:43;1.85;98.83
68257;DHT22;55069;51.568;4.656;2024-02-28T03:07:09;1.79;98.59
68257;DHT22;55069;51.568;4.656;2024-02-28T03:09:34;1.76;98.90
68257;DHT22;55069;51.568;4.656;2024-02-28T03:12:00;1.73;98.71
68257;DHT22;55069;51.568;4.656;2024-02-28T03:14:26;1.70;98.73
68257;DHT22;55069;51.568;4.656;2024-02-28T03:16:53;1.66;98.88
68257;DHT22;55069;51.568;4.656;2024-02-28T03:19:19;1.69;98.97
68257;DHT22;55069;51.568;4.656;2024-02-28T03:21:45;1.78;99.17
68257;DHT22;55069;51.568;4.656;2024-02-28T03:24:10;1.76;99.28
68257;DHT22;55069;51.568;4.656;2024-02-28T03:26:36;1.82;99.16
68257;DHT22;55069;51.568;4.656;2024-02-28T03:29:01;1.76;99.06
68257;DHT22;55069;51.568;4.656;2024-02-28T03:31:27;1.83;99.22
68257;DHT22;55069;51.568;4.656;2024-02-28T03:33:52;1.83;99.36
68257;DHT22;55069;51.568;4.656;2024-02-28T03:36:18;1.79;99.24
68257;DHT22;55069;51.568;4.656;2024-02-28T03:38:43;1.82;99.14
68257;DHT22;55069;51.568;4.656;2024-02-28T03:41:09;1.83;99.16
68257;DHT22;55069;51.568;4.656;2024-02-28T03:43:35;1.83;99.35
68257;DHT22;55069;51.568;4.656;2024-02-28T03:46:00;1.85;99.32
68257;DHT22;55069;51.568;4.656;2024-02-28T03:48:26;1.83;99.27
68257;DHT22;55069;51.568;4.656;2024-02-28T03:50:52;1.86;99.30
68257;DHT22;55069;51.568;4.656;2024-02-28T03:53:17;1.85;99.27
68257;DHT22;55069;51.568;4.656;2024-02-28T03:55:43;1.85;99.31
68257;DHT22;55069;51.568;4.656;2024-02-28T03:58:11;1.86;99.16
68257;DHT22;55069;51.568;4.656;2024-02-28T04:00:37;1.90;99.29
68257;DHT22;55069;51.568;4.656;2024-02-28T04:03:04;1.90;99.17
68257;DHT22;55069;51.568;4.656;2024-02-28T04:05:29;1.89;99.18
68257;DHT22;55069;51.568;4.656;2024-02-28T04:07:55;1.83;99.28
68257;DHT22;55069;51.568;4.656;2024-02-28T04:10:21;1.85;99.24
68257;DHT22;55069;51.568;4.656;2024-02-28T04:12:47;1.83;99.24
68257;DHT22;55069;51.568;4.656;2024-02-28T04:15:12;1.80;99.20
68257;DHT22;55069;51.568;4.656;2024-02-28T04:17:39;1.78;99.12
68257;DHT22;55069;51.568;4.656;2024-02-28T04:20:13;1.82;99.06
68257;DHT22;55069;51.568;4.656;2024-02-28T04:22:39;1.75;98.97
68257;DHT22;55069;51.568;4.656;2024-02-28T04:25:05;1.70;99.20
68257;DHT22;55069;51.568;4.656;2024-02-28T04:27:32;1.72;98.90
68257;DHT22;55069;51.568;4.656;2024-02-28T04:29:57;1.62;98.94
68257;DHT22;55069;51.568;4.656;2024-02-28T04:32:23;1.59;99.02
68257;DHT22;55069;51.568;4.656;2024-02-28T04:34:49;1.59;99.06
68257;DHT22;55069;51.568;4.656;2024-02-28T04:37:15;1.58;99.17
68257;DHT22;55069;51.568;4.656;2024-02-28T04:39:40;1.59;99.35
68257;DHT22;55069;51.568;4.656;2024-02-28T04:42:06;1.58;99.14
68257;DHT22;55069;51.568;4.656;2024-02-28T04:44:33;1.62;99.20
68257;DHT22;55069;51.568;4.656;2024-02-28T04:46:58;1.65;99.46
68257;DHT22;55069;51.568;4.656;2024-02-28T04:49:24;1.72;99.39
68257;DHT22;55069;51.568;4.656;2024-02-28T04:51:49;1.73;99.48
68257;DHT22;55069;51.568;4.656;2024-02-28T04:54:15;1.85;99.53
68257;DHT22;55069;51.568;4.656;2024-02-28T04:56:41;1.95;99.22
68257;DHT22;55069;51.568;4.656;2024-02-28T04:59:13;1.99;98.97
68257;DHT22;55069;51.568;4.656;2024-02-28T05:01:39;2.02;99.19
68257;DHT22;55069;51.568;4.656;2024-02-28T05:04:07;2.09;99.15
68257;DHT22;55069;51.568;4.656;2024-02-28T05:06:33;2.09;99.22
68257;DHT22;55069;51.568;4.656;2024-02-28T05:08:59;2.14;99.27
68257;DHT22;55069;51.568;4.656;2024-02-28T05:11:24;2.26;99.25
68257;DHT22;55069;51.568;4.656;2024-02-28T05:13:50;2.30;99.15
68257;DHT22;55069;51.568;4.656;2024-02-28T05:16:16;2.33;99.19
68257;DHT22;55069;51.568;4.656;2024-02-28T05:18:44;2.38;99.12
68257;DHT22;55069;51.568;4.656;2024-02-28T05:21:10;2.54;99.01
68257;DHT22;55069;51.568;4.656;2024-02-28T05:23:35;2.52;98.55
68257;DHT22;55069;51.568;4.656;2024-02-28T05:26:02;2.57;99.05
68257;DHT22;55069;51.568;4.656;2024-02-28T05:28:30;2.64;98.77
68257;DHT22;55069;51.568;4.656;2024-02-28T05:30:56;2.65;98.74
68257;DHT22;55069;51.568;4.656;2024-02-28T05:33:22;2.71;98.73
68257;DHT22;55069;51.568;4.656;2024-02-28T05:35:47;2.72;98.95
68257;DHT22;55069;51.568;4.656;2024-02-28T05:38:13;2.72;98.92
68257;DHT22;55069;51.568;4.656;2024-02-28T05:40:38;2.72;98.64
68257;DHT22;55069;51.568;4.656;2024-02-28T05:43:04;2.84;98.79
68257;DHT22;55069;51.568;4.656;2024-02-28T05:45:29;2.82;98.29
68257;DHT22;55069;51.568;4.656;2024-02-28T05:47:55;2.89;98.61
68257;DHT22;55069;51.568;4.656;2024-02-28T05:50:20;2.89;98.57
68257;DHT22;55069;51.568;4.656;2024-02-28T05:52:46;2.92;98.60
68257;DHT22;55069;51.568;4.656;2024-02-28T05:55:12;2.95;98.68
68257;DHT22;55069;51.568;4.656;2024-02-28T05:57:38;2.96;98.87
68257;DHT22;55069;51.568;4.656;2024-02-28T06:00:04;3.02;98.86
68257;DHT22;55069;51.568;4.656;2024-02-28T06:02:37;3.04;98.70
68257;DHT22;55069;51.568;4.656;2024-02-28T06:05:03;3.09;98.80
68257;DHT22;55069;51.568;4.656;2024-02-28T06:07:28;3.12;98.83
68257;DHT22;55069;51.568;4.656;2024-02-28T06:09:54;3.14;98.83
68257;DHT22;55069;51.568;4.656;2024-02-28T06:12:19;3.14;98.62
68257;DHT22;55069;51.568;4.656;2024-02-28T06:14:45;3.20;98.83
68257;DHT22;55069;51.568;4.656;2024-02-28T06:17:10;3.22;98.71
68257;DHT22;55069;51.568;4.656;2024-02-28T06:19:36;3.22;98.49
68257;DHT22;55069;51.568;4.656;2024-02-28T06:22:01;3.24;98.41
68257;DHT22;55069;51.568;4.656;2024-02-28T06:24:27;3.33;98.43
68257;DHT22;55069;51.568;4.656;2024-02-28T06:26:52;3.28;98.52
68257;DHT22;55069;51.568;4.656;2024-02-28T06:29:18;3.30;98.20
68257;DHT22;55069;51.568;4.656;2024-02-28T06:31:50;3.35;98.12
68257;DHT22;55069;51.568;4.656;2024-02-28T06:34:16;3.28;98.04
68257;DHT22;55069;51.568;4.656;2024-02-28T06:36:41;3.35;98.26
68257;DHT22;55069;51.568;4.656;2024-02-28T06:39:06;3.37;98.22
68257;DHT22;55069;51.568;4.656;2024-02-28T06:41:32;3.37;98.06
68257;DHT22;55069;51.568;4.656;2024-02-28T06:43:57;3.35;97.95
68257;DHT22;55069;51.568;4.656;2024-02-28T06:46:24;3.38;97.90
68257;DHT22;55069;51.568;4.656;2024-02-28T06:48:49;3.44;97.79
68257;DHT22;55069;51.568;4.656;2024-02-28T06:51:16;3.44;97.35
68257;DHT22;55069;51.568;4.656;2024-02-28T06:53:42;3.38;97.20
68257;DHT22;55069;51.568;4.656;2024-02-28T06:56:08;3.43;97.24
68257;DHT22;55069;51.568;4.656;2024-02-28T06:58:34;3.40;97.35
68257;DHT22;55069;51.568;4.656;2024-02-28T07:00:59;3.38;97.34
68257;DHT22;55069;51.568;4.656;2024-02-28T07:03:25;3.40;97.27
68257;DHT22;55069;51.568;4.656;2024-02-28T07:05:50;3.40;97.26
68257;DHT22;55069;51.568;4.656;2024-02-28T07:08:17;3.43;97.34
68257;DHT22;55069;51.568;4.656;2024-02-28T07:10:42;3.43;97.48
68257;DHT22;55069;51.568;4.656;2024-02-28T07:13:09;3.54;97.47
68257;DHT22;55069;51.568;4.656;2024-02-28T07:15:36;3.58;97.33
68257;DHT22;55069;51.568;4.656;2024-02-28T07:18:01;3.51;97.22
68257;DHT22;55069;51.568;4.656;2024-02-28T07:20:27;3.52;97.42
68257;DHT22;55069;51.568;4.656;2024-02-28T07:22:52;3.58;97.43
68257;DHT22;55069;51.568;4.656;2024-02-28T07:25:17;3.64;97.54
68257;DHT22;55069;51.568;4.656;2024-02-28T07:27:43;3.68;97.64
68257;DHT22;55069;51.568;4.656;2024-02-28T07:30:09;3.79;97.66
68257;DHT22;55069;51.568;4.656;2024-02-28T07:32:35;3.83;97.69
68257;DHT22;55069;51.568;4.656;2024-02-28T07:35:01;3.88;97.72
68257;DHT22;55069;51.568;4.656;2024-02-28T07:37:26;3.96;97.77
68257;DHT22;55069;51.568;4.656;2024-02-28T07:39:52;3.99;97.76
68257;DHT22;55069;51.568;4.656;2024-02-28T07:42:18;4.00;97.83
68257;DHT22;55069;51.568;4.656;2024-02-28T07:44:43;3.98;97.84
68257;DHT22;55069;51.568;4.656;2024-02-28T07:47:12;3.96;97.91
68257;DHT22;55069;51.568;4.656;2024-02-28T07:49:37;3.98;97.93
68257;DHT22;55069;51.568;4.656;2024-02-28T07:52:03;3.98;97.96
68257;DHT22;55069;51.568;4.656;2024-02-28T07:54:28;3.96;97.95
68257;DHT22;55069;51.568;4.656;2024-02-28T07:56:54;4.07;97.97
68257;DHT22;55069;51.568;4.656;2024-02-28T07:59:19;4.05;97.80
68257;DHT22;55069;51.568;4.656;2024-02-28T08:01:45;4.07;97.87
68257;DHT22;55069;51.568;4.656;2024-02-28T08:04:10;4.14;97.85
68257;DHT22;55069;51.568;4.656;2024-02-28T08:06:36;4.14;97.65
68257;DHT22;55069;51.568;4.656;2024-02-28T08:09:02;4.20;97.67
68257;DHT22;55069;51.568;4.656;2024-02-28T08:11:30;4.20;97.62
68257;DHT22;55069;51.568;4.656;2024-02-28T08:13:55;4.32;97.61
68257;DHT22;55069;51.568;4.656;2024-02-28T08:16:21;4.33;97.56
68257;DHT22;55069;51.568;4.656;2024-02-28T08:18:46;4.37;97.47
68257;DHT22;55069;51.568;4.656;2024-02-28T08:21:12;4.40;97.36
68257;DHT22;55069;51.568;4.656;2024-02-28T08:23:37;4.40;97.42
68257;DHT22;55069;51.568;4.656;2024-02-28T08:26:03;4.43;97.32
68257;DHT22;55069;51.568;4.656;2024-02-28T08:28:29;4.44;97.37
68257;DHT22;55069;51.568;4.656;2024-02-28T08:30:54;4.47;97.26
68257;DHT22;55069;51.568;4.656;2024-02-28T08:33:20;4.43;97.02
68257;DHT22;55069;51.568;4.656;2024-02-28T08:35:45;4.47;96.79
68257;DHT22;55069;51.568;4.656;2024-02-28T08:38:11;4.41;96.82
68257;DHT22;55069;51.568;4.656;2024-02-28T08:40:37;4.38;96.79
68257;DHT22;55069;51.568;4.656;2024-02-28T08:43:03;4.46;96.78
68257;DHT22;55069;51.568;4.656;2024-02-28T08:45:28;4.48;96.71
68257;DHT22;55069;51.568;4.656;2024-02-28T08:47:54;4.56;96.57
68257;DHT22;55069;51.568;4.656;2024-02-28T08:50:19;4.61;96.56
68257;DHT22;55069;51.568;4.656;2024-02-28T08:52:45;4.72;96.48
68257;DHT22;55069;51.568;4.656;2024-02-28T08:55:10;4.85;96.20
68257;DHT22;55069;51.568;4.656;2024-02-28T08:57:36;4.89;95.89
68257;DHT22;55069;51.568;4.656;2024-02-28T09:00:02;4.98;95.85
68257;DHT22;55069;51.568;4.656;2024-02-28T09:02:28;5.12;95.87
68257;DHT22;55069;51.568;4.656;2024-02-28T09:04:54;5.26;95.68
68257;DHT22;55069;51.568;4.656;2024-02-28T09:07:22;5.50;95.33
68257;DHT22;55069;51.568;4.656;2024-02-28T09:09:47;5.68;95.06
68257;DHT22;55069;51.568;4.656;2024-02-28T09:12:14;5.81;95.01
68257;DHT22;55069;51.568;4.656;2024-02-28T09:14:40;5.90;94.96
68257;DHT22;55069;51.568;4.656;2024-02-28T09:17:06;6.01;94.58
68257;DHT22;55069;51.568;4.656;2024-02-28T09:19:31;5.98;93.85
68257;DHT22;55069;51.568;4.656;2024-02-28T09:21:57;6.08;94.06
68257;DHT22;55069;51.568;4.656;2024-02-28T09:24:23;6.22;94.03
68257;DHT22;55069;51.568;4.656;2024-02-28T09:26:49;6.39;93.70
68257;DHT22;55069;51.568;4.656;2024-02-28T09:29:15;6.43;93.28
68257;DHT22;55069;51.568;4.656;2024-02-28T09:31:40;6.60;93.26
68257;DHT22;55069;51.568;4.656;2024-02-28T09:34:06;6.77;92.78
68257;DHT22;55069;51.568;4.656;2024-02-28T09:36:44;6.88;92.35
68257;DHT22;55069;51.568;4.656;2024-02-28T09:39:14;6.94;91.87
68257;DHT22;55069;51.568;4.656;2024-02-28T09:41:43;6.77;91.92
68257;DHT22;55069;51.568;4.656;2024-02-28T09:44:08;6.66;92.53
68257;DHT22;55069;51.568;4.656;2024-02-28T09:46:35;6.78;92.18
68257;DHT22;55069;51.568;4.656;2024-02-28T09:49:07;6.85;92.29
68257;DHT22;55069;51.568;4.656;2024-02-28T09:51:33;6.97;92.28
68257;DHT22;55069;51.568;4.656;2024-02-28T09:54:05;7.14;92.19
68257;DHT22;55069;51.568;4.656;2024-02-28T09:56:31;7.20;91.84
68257;DHT22;55069;51.568;4.656;2024-02-28T09:58:57;7.46;91.69
68257;DHT22;55069;51.568;4.656;2024-02-28T13:10:21;9.63;90.75
68257;DHT22;55069;51.568;4.656;2024-02-28T13:12:47;9.66;90.64
68257;DHT22;55069;51.568;4.656;2024-02-28T13:15:13;9.62;90.65
68257;DHT22;55069;51.568;4.656;2024-02-28T13:17:39;9.57;90.73
68257;DHT22;55069;51.568;4.656;2024-02-28T13:20:07;9.55;90.87
68257;DHT22;55069;51.568;4.656;2024-02-28T13:22:33;9.49;90.88
68257;DHT22;55069;51.568;4.656;2024-02-28T13:24:59;9.53;90.99
68257;DHT22;55069;51.568;4.656;2024-02-28T13:27:26;9.56;91.38
68257;DHT22;55069;51.568;4.656;2024-02-28T13:29:52;9.56;91.26
68257;DHT22;55069;51.568;4.656;2024-02-28T13:32:18;9.49;91.21
68257;DHT22;55069;51.568;4.656;2024-02-28T13:34:46;9.56;91.18
68257;DHT22;55069;51.568;4.656;2024-02-28T13:37:13;9.60;91.09
68257;DHT22;55069;51.568;4.656;2024-02-28T13:39:39;9.59;90.91
68257;DHT22;55069;51.568;4.656;2024-02-28T13:42:04;9.59;91.01
68257;DHT22;55069;51.568;4.656;2024-02-28T13:44:32;9.55;91.11
68257;DHT22;55069;51.568;4.656;2024-02-28T13:46:57;9.59;91.14
68257;DHT22;55069;51.568;4.656;2024-02-28T13:49:23;9.60;91.17
68257;DHT22;55069;51.568;4.656;2024-02-28T13:51:49;9.62;91.30
68257;DHT22;55069;51.568;4.656;2024-02-28T13:54:15;9.70;91.15
68257;DHT22;55069;51.568;4.656;2024-02-28T13:56:41;9.72;91.14
68257;DHT22;55069;51.568;4.656;2024-02-28T13:59:06;9.65;91.49
68257;DHT22;55069;51.568;4.656;2024-02-28T14:01:32;9.60;91.91
68257;DHT22;55069;51.568;4.656;2024-02-28T14:03:59;9.55;92.56
68257;DHT22;55069;51.568;4.656;2024-02-28T14:06:25;9.52;93.47
68257;DHT22;55069;51.568;4.656;2024-02-28T14:08:51;9.45;93.84
68257;DHT22;55069;51.568;4.656;2024-02-28T14:11:18;9.42;94.48
68257;DHT22;55069;51.568;4.656;2024-02-28T14:13:43;9.53;94.59
68257;DHT22;55069;51.568;4.656;2024-02-28T14:16:09;9.43;94.81
68257;DHT22;55069;51.568;4.656;2024-02-28T14:18:35;9.40;95.20
68257;DHT22;55069;51.568;4.656;2024-02-28T14:21:00;9.39;95.84
68257;DHT22;55069;51.568;4.656;2024-02-28T14:23:28;9.38;95.80
68257;DHT22;55069;51.568;4.656;2024-02-28T14:25:53;9.34;95.89
68257;DHT22;55069;51.568;4.656;2024-02-28T14:28:19;9.36;96.08
68257;DHT22;55069;51.568;4.656;2024-02-28T14:30:46;9.39;95.97
68257;DHT22;55069;51.568;4.656;2024-02-28T14:33:14;9.50;95.98
68257;DHT22;55069;51.568;4.656;2024-02-28T14:35:40;9.63;95.97
68257;DHT22;55069;51.568;4.656;2024-02-28T14:38:07;9.75;96.08
68257;DHT22;55069;51.568;4.656;2024-02-28T14:40:33;9.75;95.70
68257;DHT22;55069;51.568;4.656;2024-02-28T14:42:59;9.79;95.30
68257;DHT22;55069;51.568;4.656;2024-02-28T14:45:24;9.89;95.14
68257;DHT22;55069;51.568;4.656;2024-02-28T14:47:53;9.90;94.61
68257;DHT22;55069;51.568;4.656;2024-02-28T14:50:19;10.01;94.59
68257;DHT22;55069;51.568;4.656;2024-02-28T14:52:46;10.14;94.43
68257;DHT22;55069;51.568;4.656;2024-02-28T14:55:12;10.10;94.07
68257;DHT22;55069;51.568;4.656;2024-02-28T14:57:38;10.14;93.99
68257;DHT22;55069;51.568;4.656;2024-02-28T15:00:06;10.21;93.80
68257;DHT22;55069;51.568;4.656;2024-02-28T15:02:36;10.14;93.43
68257;DHT22;55069;51.568;4.656;2024-02-28T15:05:02;10.22;93.64
68257;DHT22;55069;51.568;4.656;2024-02-28T15:07:33;10.15;93.17
68257;DHT22;55069;51.568;4.656;2024-02-28T15:10:01;10.10;92.39
68257;DHT22;55069;51.568;4.656;2024-02-28T15:12:30;10.07;92.60
68257;DHT22;55069;51.568;4.656;2024-02-28T15:15:02;10.00;93.16
68257;DHT22;55069;51.568;4.656;2024-02-28T15:17:28;10.05;93.01
68257;DHT22;55069;51.568;4.656;2024-02-28T15:19:54;10.00;92.98
68257;DHT22;55069;51.568;4.656;2024-02-28T15:22:32;9.98;93.27
68257;DHT22;55069;51.568;4.656;2024-02-28T15:25:00;9.87;93.05
68257;DHT22;55069;51.568;4.656;2024-02-28T15:27:26;9.82;92.85
68257;DHT22;55069;51.568;4.656;2024-02-28T15:29:52;9.84;92.73
68257;DHT22;55069;51.568;4.656;2024-02-28T15:32:18;9.75;92.59
68257;DHT22;55069;51.568;4.656;2024-02-28T15:34:44;9.66;92.99
68257;DHT22;55069;51.568;4.656;2024-02-28T15:37:10;9.69;92.92
68257;DHT22;55069;51.568;4.656;2024-02-28T15:39:36;9.65;93.25
68257;DHT22;55069;51.568;4.656;2024-02-28T15:42:02;9.62;93.01
68257;DHT22;55069;51.568;4.656;2024-02-28T15:44:29;9.63;92.93
68257;DHT22;55069;51.568;4.656;2024-02-28T15:46:55;9.59;93.17
68257;DHT22;55069;51.568;4.656;2024-02-28T15:49:22;9.50;93.43
68257;DHT22;55069;51.568;4.656;2024-02-28T15:51:48;9.53;93.16
68257;DHT22;55069;51.568;4.656;2024-02-28T15:54:14;9.52;93.11
68257;DHT22;55069;51.568;4.656;2024-02-28T15:56:40;9.50;93.09
68257;DHT22;55069;51.568;4.656;2024-02-28T15:59:09;9.53;92.95
68257;DHT22;55069;51.568;4.656;2024-02-28T16:01:41;9.55;93.42
68257;DHT22;55069;51.568;4.656;2024-02-28T16:04:07;9.56;93.23
68257;DHT22;55069;51.568;4.656;2024-02-28T16:06:33;9.55;92.89
68257;DHT22;55069;51.568;4.656;2024-02-28T16:08:59;9.57;92.71
68257;DHT22;55069;51.568;4.656;2024-02-28T16:11:25;9.59;92.95
68257;DHT22;55069;51.568;4.656;2024-02-28T16:13:50;9.56;92.84
68257;DHT22;55069;51.568;4.656;2024-02-28T16:16:16;9.49;92.68
68257;DHT22;55069;51.568;4.656;2024-02-28T16:18:42;9.55;93.15
68257;DHT22;55069;51.568;4.656;2024-02-28T16:21:08;9.52;93.15
68257;DHT22;55069;51.568;4.656;2024-02-28T16:23:34;9.49;93.14
68257;DHT22;55069;51.568;4.656;2024-02-28T16:26:00;9.50;93.27
68257;DHT22;55069;51.568;4.656;2024-02-28T16:28:26;9.46;93.26
68257;DHT22;55069;51.568;4.656;2024-02-28T16:30:52;9.48;93.23
68257;DHT22;55069;51.568;4.656;2024-02-28T16:33:19;9.43;93.06
68257;DHT22;55069;51.568;4.656;2024-02-28T16:35:46;9.42;93.15
68257;DHT22;55069;51.568;4.656;2024-02-28T16:38:12;9.43;93.39
68257;DHT22;55069;51.568;4.656;2024-02-28T16:40:38;9.42;92.97
68257;DHT22;55069;51.568;4.656;2024-02-28T16:43:04;9.36;93.08
68257;DHT22;55069;51.568;4.656;2024-02-28T16:45:29;9.28;93.11
68257;DHT22;55069;51.568;4.656;2024-02-28T16:47:55;9.31;93.15
68257;DHT22;55069;51.568;4.656;2024-02-28T16:50:21;9.25;92.79
68257;DHT22;55069;51.568;4.656;2024-02-28T16:52:50;9.25;92.57
68257;DHT22;55069;51.568;4.656;2024-02-28T16:55:15;9.32;92.11
68257;DHT22;55069;51.568;4.656;2024-02-28T16:57:41;9.28;91.88
68257;DHT22;55069;51.568;4.656;2024-02-28T17:00:08;9.27;92.17
68257;DHT22;55069;51.568;4.656;2024-02-28T17:02:35;9.25;92.16
68257;DHT22;55069;51.568;4.656;2024-02-28T17:05:01;9.24;92.27
68257;DHT22;55069;51.568;4.656;2024-02-28T17:07:27;9.18;92.72
68257;DHT22;55069;51.568;4.656;2024-02-28T17:09:53;9.18;92.23
68257;DHT22;55069;51.568;4.656;2024-02-28T17:12:19;9.21;92.18
68257;DHT22;55069;51.568;4.656;2024-02-28T17:14:45;9.19;92.28
68257;DHT22;55069;51.568;4.656;2024-02-28T17:17:11;9.11;92.21
68257;DHT22;55069;51.568;4.656;2024-02-28T17:19:40;9.10;92.45
68257;DHT22;55069;51.568;4.656;2024-02-28T17:22:06;9.04;92.04
68257;DHT22;55069;51.568;4.656;2024-02-28T17:24:32;9.11;92.27
68257;DHT22;55069;51.568;4.656;2024-02-28T17:27:00;9.11;92.19
68257;DHT22;55069;51.568;4.656;2024-02-28T17:29:25;9.12;92.03
68257;DHT22;55069;51.568;4.656;2024-02-28T17:31:51;9.10;91.95
68257;DHT22;55069;51.568;4.656;2024-02-28T17:34:17;9.07;91.91
68257;DHT22;55069;51.568;4.656;2024-02-28T17:36:43;9.11;91.77
68257;DHT22;55069;51.568;4.656;2024-02-28T17:39:10;9.04;91.95
68257;DHT22;55069;51.568;4.656;2024-02-28T17:41:36;9.08;92.04
68257;DHT22;55069;51.568;4.656;2024-02-28T17:44:02;9.07;91.64
68257;DHT22;55069;51.568;4.656;2024-02-28T17:46:27;9.07;91.92
68257;DHT22;55069;51.568;4.656;2024-02-28T17:48:53;9.07;91.83
68257;DHT22;55069;51.568;4.656;2024-02-28T17:51:20;9.07;92.11
68257;DHT22;55069;51.568;4.656;2024-02-28T17:53:46;9.07;91.87
68257;DHT22;55069;51.568;4.656;2024-02-28T17:56:12;9.10;91.91
68257;DHT22;55069;51.568;4.656;2024-02-28T17:58:37;9.05;91.88
68257;DHT22;55069;51.568;4.656;2024-02-28T18:01:03;9.10;91.90
68257;DHT22;55069;51.568;4.656;2024-02-28T18:03:31;9.08;91.78
68257;DHT22;55069;51.568;4.656;2024-02-28T18:05:58;9.04;91.94
68257;DHT22;55069;51.568;4.656;2024-02-28T18:08:24;9.01;92.22
68257;DHT22;55069;51.568;4.656;2024-02-28T18:10:52;9.01;92.17
68257;DHT22;55069;51.568;4.656;2024-02-28T18:13:17;8.97;92.45
68257;DHT22;55069;51.568;4.656;2024-02-28T18:15:47;8.98;92.46
68257;DHT22;55069;51.568;4.656;2024-02-28T18:18:14;8.98;92.31
68257;DHT22;55069;51.568;4.656;2024-02-28T18:20:40;8.98;92.14
68257;DHT22;55069;51.568;4.656;2024-02-28T18:23:08;8.85;92.59
68257;DHT22;55069;51.568;4.656;2024-02-28T18:25:33;8.90;92.54
68257;DHT22;55069;51.568;4.656;2024-02-28T18:27:59;8.79;92.63
68257;DHT22;55069;51.568;4.656;2024-02-28T18:30:25;8.84;92.57
68257;DHT22;55069;51.568;4.656;2024-02-28T18:32:51;8.83;92.64
68257;DHT22;55069;51.568;4.656;2024-02-28T18:35:16;8.83;92.36
68257;DHT22;55069;51.568;4.656;2024-02-28T18:37:44;8.81;92.22
68257;DHT22;55069;51.568;4.656;2024-02-28T18:40:10;8.81;92.20
68257;DHT22;55069;51.568;4.656;2024-02-28T18:42:42;8.81;92.31
68257;DHT22;55069;51.568;4.656;2024-02-28T18:45:09;8.79;92.12
68257;DHT22;55069;51.568;4.656;2024-02-28T18:47:37;8.73;92.22